sensor_id;sensor_type;location;lat;lon;timestamp;P1;durP1;ratioP1;P2;durP2;ratioP2
6207;SDS011;3137;51.550;7.060;2022-09-27T00:00:04;2.20;;;2.00;;
6207;SDS011;3137;51.550;7.060;2022-09-27T00:02:37;5.10;;;1.97;;
6207;SDS011;3137;51.550;7.060;2022-09-27T00:05:03;2.30;;;2.17;;
6207;SDS011;3137;51.550;7.060;2022-09-27T00:07:30;1.67;;;1.57;;
6207;SDS011;3137;51.550;7.060;2022-09-27T00:09:56;5.13;;;2.47;;
6207;SDS011;3137;51.550;7.060;2022-09-27T00:12:23;4.67;;;2.23;;
6207;SDS011;3137;51.550;7.060;2022-09-27T00:14:49;2.90;;;2.70;;
6207;SDS011;3137;51.550;7.060;2022-09-27T00:17:16;8.67;;;2.10;;
6207;SDS011;3137;51.550;7.060;2022-09-27T00:19:42;7.23;;;2.60;;
6207;SDS011;3137;51.550;7.060;2022-09-27T00:22:08;4.50;;;2.73;;
6207;SDS011;3137;51.550;7.060;2022-09-27T00:24:35;1.70;;;1.70;;
6207;SDS011;3137;51.550;7.060;2022-09-27T00:27:01;2.80;;;2.60;;
6207;SDS011;3137;51.550;7.060;2022-09-27T00:29:27;4.27;;;2.77;;
6207;SDS011;3137;51.550;7.060;2022-09-27T00:31:54;3.43;;;3.30;;
6207;SDS011;3137;51.550;7.060;2022-09-27T00:34:21;3.83;;;2.90;;
6207;SDS011;3137;51.550;7.060;2022-09-27T00:36:49;3.50;;;3.30;;
6207;SDS011;3137;51.550;7.060;2022-09-27T00:39:16;2.90;;;2.80;;
6207;SDS011;3137;51.550;7.060;2022-09-27T00:41:43;4.30;;;3.50;;
6207;SDS011;3137;51.550;7.060;2022-09-27T00:49:38;2.87;;;2.73;;
6207;SDS011;3137;51.550;7.060;2022-09-27T00:52:25;4.70;;;4.00;;
6207;SDS011;3137;51.550;7.060;2022-09-27T00:55:01;5.07;;;3.30;;
6207;SDS011;3137;51.550;7.060;2022-09-27T00:57:32;10.40;;;4.07;;
6207;SDS011;3137;51.550;7.060;2022-09-27T01:00:00;3.60;;;3.30;;
6207;SDS011;3137;51.550;7.060;2022-09-27T01:02:26;3.57;;;3.27;;
6207;SDS011;3137;51.550;7.060;2022-09-27T01:04:53;4.83;;;3.60;;
6207;SDS011;3137;51.550;7.060;2022-09-27T01:07:20;2.93;;;2.37;;
6207;SDS011;3137;51.550;7.060;2022-09-27T01:09:47;3.90;;;2.60;;
6207;SDS011;3137;51.550;7.060;2022-09-27T01:14:45;7.73;;;3.20;;
6207;SDS011;3137;51.550;7.060;2022-09-27T01:17:38;8.40;;;3.37;;
6207;SDS011;3137;51.550;7.060;2022-09-27T01:28:54;5.00;;;3.73;;
6207;SDS011;3137;51.550;7.060;2022-09-27T01:31:41;5.73;;;4.67;;
6207;SDS011;3137;51.550;7.060;2022-09-27T01:34:25;5.20;;;4.80;;
6207;SDS011;3137;51.550;7.060;2022-09-27T01:36:57;13.20;;;5.10;;
6207;SDS011;3137;51.550;7.060;2022-09-27T01:43:27;8.37;;;5.67;;
6207;SDS011;3137;51.550;7.060;2022-09-27T01:46:05;7.13;;;6.50;;
6207;SDS011;3137;51.550;7.060;2022-09-27T01:49:11;6.03;;;5.80;;
6207;SDS011;3137;51.550;7.060;2022-09-27T01:51:56;6.43;;;6.13;;
6207;SDS011;3137;51.550;7.060;2022-09-27T01:54:30;7.33;;;6.63;;
6207;SDS011;3137;51.550;7.060;2022-09-27T01:57:33;5.70;;;5.40;;
6207;SDS011;3137;51.550;7.060;2022-09-27T02:00:07;10.73;;;6.87;;
6207;SDS011;3137;51.550;7.060;2022-09-27T02:02:43;5.90;;;5.50;;
6207;SDS011;3137;51.550;7.060;2022-09-27T02:05:29;6.67;;;6.17;;
6207;SDS011;3137;51.550;7.060;2022-09-27T02:08:11;5.93;;;5.63;;
6207;SDS011;3137;51.550;7.060;2022-09-27T02:10:54;9.87;;;5.77;;
6207;SDS011;3137;51.550;7.060;2022-09-27T02:13:27;5.37;;;5.07;;
6207;SDS011;3137;51.550;7.060;2022-09-27T02:16:14;6.57;;;5.43;;
6207;SDS011;3137;51.550;7.060;2022-09-27T02:18:54;6.67;;;6.07;;
6207;SDS011;3137;51.550;7.060;2022-09-27T02:21:37;6.40;;;5.90;;
6207;SDS011;3137;51.550;7.060;2022-09-27T02:24:09;6.27;;;5.70;;
6207;SDS011;3137;51.550;7.060;2022-09-27T02:26:38;7.57;;;6.10;;
6207;SDS011;3137;51.550;7.060;2022-09-27T02:29:10;5.73;;;5.63;;
6207;SDS011;3137;51.550;7.060;2022-09-27T02:31:47;15.27;;;5.63;;
6207;SDS011;3137;51.550;7.060;2022-09-27T02:34:19;8.47;;;5.57;;
6207;SDS011;3137;51.550;7.060;2022-09-27T02:36:48;6.10;;;5.57;;
6207;SDS011;3137;51.550;7.060;2022-09-27T02:39:18;6.20;;;6.03;;
6207;SDS011;3137;51.550;7.060;2022-09-27T02:41:48;6.33;;;5.83;;
6207;SDS011;3137;51.550;7.060;2022-09-27T02:44:15;6.90;;;5.37;;
6207;SDS011;3137;51.550;7.060;2022-09-27T02:46:48;5.30;;;5.00;;
6207;SDS011;3137;51.550;7.060;2022-09-27T03:01:20;7.30;;;6.77;;
6207;SDS011;3137;51.550;7.060;2022-09-27T03:04:16;6.63;;;5.93;;
6207;SDS011;3137;51.550;7.060;2022-09-27T03:06:49;8.97;;;5.27;;
6207;SDS011;3137;51.550;7.060;2022-09-27T03:09:27;5.03;;;4.57;;
6207;SDS011;3137;51.550;7.060;2022-09-27T03:11:54;4.90;;;4.80;;
6207;SDS011;3137;51.550;7.060;2022-09-27T03:14:21;5.17;;;5.03;;
6207;SDS011;3137;51.550;7.060;2022-09-27T03:17:08;5.07;;;4.70;;
6207;SDS011;3137;51.550;7.060;2022-09-27T03:19:53;5.33;;;4.83;;
6207;SDS011;3137;51.550;7.060;2022-09-27T03:22:38;4.13;;;4.07;;
6207;SDS011;3137;51.550;7.060;2022-09-27T03:25:05;3.83;;;3.70;;
6207;SDS011;3137;51.550;7.060;2022-09-27T03:27:32;6.87;;;4.30;;
6207;SDS011;3137;51.550;7.060;2022-09-27T03:29:58;6.37;;;3.87;;
6207;SDS011;3137;51.550;7.060;2022-09-27T03:32:25;4.73;;;4.43;;
6207;SDS011;3137;51.550;7.060;2022-09-27T03:35:04;4.17;;;4.00;;
6207;SDS011;3137;51.550;7.060;2022-09-27T03:37:30;4.47;;;4.07;;
6207;SDS011;3137;51.550;7.060;2022-09-27T03:39:57;4.93;;;4.63;;
6207;SDS011;3137;51.550;7.060;2022-09-27T03:42:23;4.97;;;4.60;;
6207;SDS011;3137;51.550;7.060;2022-09-27T03:44:51;9.73;;;3.87;;
6207;SDS011;3137;51.550;7.060;2022-09-27T03:47:17;10.87;;;4.27;;
6207;SDS011;3137;51.550;7.060;2022-09-27T03:49:45;4.80;;;3.97;;
6207;SDS011;3137;51.550;7.060;2022-09-27T03:52:11;9.50;;;4.47;;
6207;SDS011;3137;51.550;7.060;2022-09-27T03:54:38;4.00;;;3.90;;
6207;SDS011;3137;51.550;7.060;2022-09-27T03:57:04;4.57;;;4.37;;
6207;SDS011;3137;51.550;7.060;2022-09-27T03:59:32;6.73;;;4.70;;
6207;SDS011;3137;51.550;7.060;2022-09-27T04:02:27;4.63;;;4.23;;
6207;SDS011;3137;51.550;7.060;2022-09-27T04:05:32;4.33;;;4.03;;
6207;SDS011;3137;51.550;7.060;2022-09-27T04:08:02;4.40;;;4.17;;
6207;SDS011;3137;51.550;7.060;2022-09-27T04:10:31;7.93;;;5.07;;
6207;SDS011;3137;51.550;7.060;2022-09-27T04:12:58;4.67;;;4.57;;
6207;SDS011;3137;51.550;7.060;2022-09-27T04:15:29;5.73;;;5.27;;
6207;SDS011;3137;51.550;7.060;2022-09-27T04:18:21;5.80;;;5.37;;
6207;SDS011;3137;51.550;7.060;2022-09-27T04:21:06;5.03;;;4.70;;
6207;SDS011;3137;51.550;7.060;2022-09-27T04:23:34;3.93;;;3.73;;
6207;SDS011;3137;51.550;7.060;2022-09-27T04:26:01;4.60;;;4.33;;
6207;SDS011;3137;51.550;7.060;2022-09-27T04:28:46;5.00;;;4.67;;
6207;SDS011;3137;51.550;7.060;2022-09-27T04:31:19;4.47;;;4.37;;
6207;SDS011;3137;51.550;7.060;2022-09-27T04:34:05;4.00;;;3.80;;
6207;SDS011;3137;51.550;7.060;2022-09-27T04:36:33;5.10;;;4.40;;
6207;SDS011;3137;51.550;7.060;2022-09-27T04:39:13;4.33;;;4.10;;
6207;SDS011;3137;51.550;7.060;2022-09-27T04:41:42;3.73;;;3.50;;
6207;SDS011;3137;51.550;7.060;2022-09-27T04:44:09;13.20;;;4.07;;
6207;SDS011;3137;51.550;7.060;2022-09-27T04:46:38;3.30;;;3.30;;
6207;SDS011;3137;51.550;7.060;2022-09-27T04:49:05;4.20;;;4.10;;
6207;SDS011;3137;51.550;7.060;2022-09-27T04:51:34;4.50;;;4.10;;
6207;SDS011;3137;51.550;7.060;2022-09-27T04:54:00;4.37;;;4.20;;
6207;SDS011;3137;51.550;7.060;2022-09-27T04:56:30;4.47;;;4.10;;
6207;SDS011;3137;51.550;7.060;2022-09-27T04:58:56;4.17;;;2.83;;
6207;SDS011;3137;51.550;7.060;2022-09-27T05:01:23;3.50;;;3.30;;
6207;SDS011;3137;51.550;7.060;2022-09-27T05:04:08;3.13;;;2.93;;
6207;SDS011;3137;51.550;7.060;2022-09-27T05:06:38;4.07;;;3.77;;
6207;SDS011;3137;51.550;7.060;2022-09-27T05:09:17;3.67;;;3.37;;
6207;SDS011;3137;51.550;7.060;2022-09-27T05:11:48;4.03;;;3.77;;
6207;SDS011;3137;51.550;7.060;2022-09-27T05:14:14;3.97;;;3.70;;
6207;SDS011;3137;51.550;7.060;2022-09-27T05:17:04;4.03;;;3.67;;
6207;SDS011;3137;51.550;7.060;2022-09-27T05:19:51;7.60;;;3.70;;
6207;SDS011;3137;51.550;7.060;2022-09-27T05:22:40;7.23;;;3.60;;
6207;SDS011;3137;51.550;7.060;2022-09-27T05:25:07;5.90;;;4.23;;
6207;SDS011;3137;51.550;7.060;2022-09-27T05:27:34;4.17;;;3.40;;
6207;SDS011;3137;51.550;7.060;2022-09-27T05:30:00;6.57;;;4.13;;
6207;SDS011;3137;51.550;7.060;2022-09-27T05:32:34;5.17;;;4.07;;
6207;SDS011;3137;51.550;7.060;2022-09-27T05:35:21;5.07;;;3.97;;
6207;SDS011;3137;51.550;7.060;2022-09-27T05:37:54;11.13;;;4.73;;
6207;SDS011;3137;51.550;7.060;2022-09-27T05:40:22;5.33;;;5.10;;
6207;SDS011;3137;51.550;7.060;2022-09-27T05:43:08;8.83;;;4.03;;
6207;SDS011;3137;51.550;7.060;2022-09-27T05:45:35;4.13;;;3.87;;
6207;SDS011;3137;51.550;7.060;2022-09-27T05:48:03;5.20;;;4.37;;
6207;SDS011;3137;51.550;7.060;2022-09-27T05:50:34;4.73;;;4.30;;
6207;SDS011;3137;51.550;7.060;2022-09-27T05:53:01;11.93;;;5.30;;
6207;SDS011;3137;51.550;7.060;2022-09-27T05:55:27;4.50;;;4.23;;
6207;SDS011;3137;51.550;7.060;2022-09-27T05:57:55;5.20;;;4.90;;
6207;SDS011;3137;51.550;7.060;2022-09-27T06:00:27;4.73;;;4.63;;
6207;SDS011;3137;51.550;7.060;2022-09-27T06:02:55;5.30;;;4.80;;
6207;SDS011;3137;51.550;7.060;2022-09-27T06:05:42;5.40;;;4.80;;
6207;SDS011;3137;51.550;7.060;2022-09-27T06:08:44;7.30;;;4.60;;
6207;SDS011;3137;51.550;7.060;2022-09-27T06:11:15;5.87;;;5.33;;
6207;SDS011;3137;51.550;7.060;2022-09-27T06:13:42;5.93;;;5.63;;
6207;SDS011;3137;51.550;7.060;2022-09-27T06:16:10;13.43;;;7.43;;
6207;SDS011;3137;51.550;7.060;2022-09-27T06:18:39;6.43;;;5.30;;
6207;SDS011;3137;51.550;7.060;2022-09-27T06:21:05;7.23;;;4.87;;
6207;SDS011;3137;51.550;7.060;2022-09-27T06:23:32;9.30;;;5.50;;
6207;SDS011;3137;51.550;7.060;2022-09-27T06:26:08;4.40;;;4.30;;
6207;SDS011;3137;51.550;7.060;2022-09-27T06:29:01;5.47;;;4.90;;
6207;SDS011;3137;51.550;7.060;2022-09-27T06:31:28;5.77;;;4.10;;
6207;SDS011;3137;51.550;7.060;2022-09-27T06:34:15;4.20;;;3.83;;
6207;SDS011;3137;51.550;7.060;2022-09-27T06:36:41;3.67;;;3.47;;
6207;SDS011;3137;51.550;7.060;2022-09-27T06:39:09;7.23;;;3.13;;
6207;SDS011;3137;51.550;7.060;2022-09-27T06:41:52;7.73;;;2.83;;
6207;SDS011;3137;51.550;7.060;2022-09-27T06:44:43;9.90;;;3.43;;
6207;SDS011;3137;51.550;7.060;2022-09-27T06:47:36;5.33;;;3.43;;
6207;SDS011;3137;51.550;7.060;2022-09-27T06:50:15;3.10;;;2.67;;
6207;SDS011;3137;51.550;7.060;2022-09-27T06:52:46;3.30;;;3.00;;
6207;SDS011;3137;51.550;7.060;2022-09-27T06:55:13;5.77;;;2.50;;
6207;SDS011;3137;51.550;7.060;2022-09-27T06:57:41;3.07;;;2.97;;
6207;SDS011;3137;51.550;7.060;2022-09-27T07:00:27;5.40;;;2.33;;
6207;SDS011;3137;51.550;7.060;2022-09-27T07:03:13;2.83;;;2.13;;
6207;SDS011;3137;51.550;7.060;2022-09-27T07:06:16;2.03;;;1.93;;
6207;SDS011;3137;51.550;7.060;2022-09-27T07:08:52;2.00;;;2.00;;
6207;SDS011;3137;51.550;7.060;2022-09-27T07:11:20;3.73;;;2.20;;
6207;SDS011;3137;51.550;7.060;2022-09-27T07:13:48;2.17;;;2.17;;
6207;SDS011;3137;51.550;7.060;2022-09-27T07:16:15;3.10;;;2.57;;
6207;SDS011;3137;51.550;7.060;2022-09-27T07:18:42;11.87;;;2.53;;
6207;SDS011;3137;51.550;7.060;2022-09-27T07:21:09;7.63;;;2.63;;
6207;SDS011;3137;51.550;7.060;2022-09-27T07:23:35;8.93;;;2.83;;
6207;SDS011;3137;51.550;7.060;2022-09-27T07:26:03;5.00;;;3.30;;
6207;SDS011;3137;51.550;7.060;2022-09-27T07:28:32;4.60;;;3.90;;
6207;SDS011;3137;51.550;7.060;2022-09-27T07:31:00;4.90;;;4.53;;
6207;SDS011;3137;51.550;7.060;2022-09-27T07:33:29;4.93;;;4.47;;
6207;SDS011;3137;51.550;7.060;2022-09-27T07:35:58;6.10;;;5.13;;
6207;SDS011;3137;51.550;7.060;2022-09-27T07:38:25;4.63;;;4.20;;
6207;SDS011;3137;51.550;7.060;2022-09-27T07:40:52;5.60;;;4.37;;
6207;SDS011;3137;51.550;7.060;2022-09-27T07:43:19;4.17;;;3.97;;
6207;SDS011;3137;51.550;7.060;2022-09-27T07:45:45;3.77;;;3.30;;
6207;SDS011;3137;51.550;7.060;2022-09-27T07:48:32;4.57;;;4.07;;
6207;SDS011;3137;51.550;7.060;2022-09-27T07:51:13;6.23;;;2.97;;
6207;SDS011;3137;51.550;7.060;2022-09-27T07:53:44;2.87;;;2.77;;
6207;SDS011;3137;51.550;7.060;2022-09-27T07:56:35;3.37;;;3.17;;
6207;SDS011;3137;51.550;7.060;2022-09-27T07:59:03;2.77;;;2.57;;
6207;SDS011;3137;51.550;7.060;2022-09-27T08:01:30;2.63;;;2.43;;
6207;SDS011;3137;51.550;7.060;2022-09-27T08:03:57;4.50;;;2.43;;
6207;SDS011;3137;51.550;7.060;2022-09-27T08:06:24;3.40;;;3.20;;
6207;SDS011;3137;51.550;7.060;2022-09-27T08:08:51;2.77;;;2.77;;
6207;SDS011;3137;51.550;7.060;2022-09-27T08:11:18;6.43;;;1.97;;
6207;SDS011;3137;51.550;7.060;2022-09-27T08:13:47;1.83;;;1.73;;
6207;SDS011;3137;51.550;7.060;2022-09-27T08:16:15;4.23;;;1.83;;
6207;SDS011;3137;51.550;7.060;2022-09-27T08:19:13;2.77;;;2.07;;
6207;SDS011;3137;51.550;7.060;2022-09-27T08:21:59;8.80;;;1.73;;
6207;SDS011;3137;51.550;7.060;2022-09-27T08:24:32;1.97;;;1.97;;
6207;SDS011;3137;51.550;7.060;2022-09-27T08:27:13;2.40;;;2.23;;
6207;SDS011;3137;51.550;7.060;2022-09-27T08:29:48;2.40;;;2.30;;
6207;SDS011;3137;51.550;7.060;2022-09-27T08:32:15;2.57;;;2.33;;
6207;SDS011;3137;51.550;7.060;2022-09-27T08:34:48;7.07;;;3.07;;
6207;SDS011;3137;51.550;7.060;2022-09-27T08:37:14;6.27;;;3.00;;
6207;SDS011;3137;51.550;7.060;2022-09-27T08:39:41;2.70;;;2.60;;
6207;SDS011;3137;51.550;7.060;2022-09-27T08:42:35;4.13;;;3.53;;
6207;SDS011;3137;51.550;7.060;2022-09-27T08:47:41;2.90;;;2.70;;
6207;SDS011;3137;51.550;7.060;2022-09-27T08:50:22;2.80;;;2.73;;
6207;SDS011;3137;51.550;7.060;2022-09-27T08:53:11;2.90;;;2.90;;
6207;SDS011;3137;51.550;7.060;2022-09-27T08:55:46;4.47;;;4.27;;
6207;SDS011;3137;51.550;7.060;2022-09-27T09:01:22;3.23;;;3.13;;
6207;SDS011;3137;51.550;7.060;2022-09-27T09:04:00;3.87;;;3.67;;
6207;SDS011;3137;51.550;7.060;2022-09-27T09:06:40;3.00;;;3.00;;
6207;SDS011;3137;51.550;7.060;2022-09-27T09:15:15;3.47;;;3.10;;
6207;SDS011;3137;51.550;7.060;2022-09-27T09:18:38;3.43;;;2.10;;
6207;SDS011;3137;51.550;7.060;2022-09-27T09:21:30;3.33;;;1.90;;
6207;SDS011;3137;51.550;7.060;2022-09-27T09:24:15;3.17;;;3.10;;
6207;SDS011;3137;51.550;7.060;2022-09-27T09:26:59;2.73;;;2.73;;
6207;SDS011;3137;51.550;7.060;2022-09-27T09:35:01;2.93;;;2.83;;
6207;SDS011;3137;51.550;7.060;2022-09-27T09:37:48;3.37;;;2.60;;
6207;SDS011;3137;51.550;7.060;2022-09-27T09:40:28;2.37;;;2.37;;
6207;SDS011;3137;51.550;7.060;2022-09-27T09:45:37;2.63;;;2.57;;
6207;SDS011;3137;51.550;7.060;2022-09-27T09:50:46;4.10;;;3.17;;
6207;SDS011;3137;51.550;7.060;2022-09-27T09:53:18;2.87;;;2.87;;
6207;SDS011;3137;51.550;7.060;2022-09-27T09:55:51;3.97;;;2.93;;
6207;SDS011;3137;51.550;7.060;2022-09-27T09:58:35;3.20;;;3.07;;
6207;SDS011;3137;51.550;7.060;2022-09-27T10:01:12;3.23;;;3.10;;
6207;SDS011;3137;51.550;7.060;2022-09-27T10:03:44;2.90;;;2.90;;
6207;SDS011;3137;51.550;7.060;2022-09-27T10:06:10;3.40;;;3.20;;
6207;SDS011;3137;51.550;7.060;2022-09-27T10:08:39;3.60;;;3.40;;
6207;SDS011;3137;51.550;7.060;2022-09-27T10:11:38;4.20;;;4.00;;
6207;SDS011;3137;51.550;7.060;2022-09-27T10:14:28;8.13;;;3.73;;
6207;SDS011;3137;51.550;7.060;2022-09-27T10:17:00;3.40;;;3.30;;
6207;SDS011;3137;51.550;7.060;2022-09-27T10:19:34;3.33;;;2.83;;
6207;SDS011;3137;51.550;7.060;2022-09-27T10:24:52;2.87;;;2.77;;
6207;SDS011;3137;51.550;7.060;2022-09-27T10:27:50;3.30;;;3.20;;
6207;SDS011;3137;51.550;7.060;2022-09-27T10:30:27;3.17;;;3.17;;
6207;SDS011;3137;51.550;7.060;2022-09-27T10:33:20;4.00;;;3.90;;
6207;SDS011;3137;51.550;7.060;2022-09-27T10:35:50;3.70;;;3.70;;
6207;SDS011;3137;51.550;7.060;2022-09-27T10:38:31;3.20;;;3.10;;
6207;SDS011;3137;51.550;7.060;2022-09-27T10:43:49;4.83;;;4.70;;
6207;SDS011;3137;51.550;7.060;2022-09-27T10:46:34;4.50;;;4.30;;
6207;SDS011;3137;51.550;7.060;2022-09-27T10:49:36;5.43;;;4.90;;
6207;SDS011;3137;51.550;7.060;2022-09-27T10:52:18;5.03;;;4.83;;
6207;SDS011;3137;51.550;7.060;2022-09-27T10:57:25;4.40;;;4.00;;
6207;SDS011;3137;51.550;7.060;2022-09-27T10:59:58;4.80;;;4.60;;
6207;SDS011;3137;51.550;7.060;2022-09-27T11:02:33;4.17;;;4.00;;
6207;SDS011;3137;51.550;7.060;2022-09-27T11:05:09;13.23;;;5.37;;
6207;SDS011;3137;51.550;7.060;2022-09-27T11:07:55;4.63;;;4.47;;
6207;SDS011;3137;51.550;7.060;2022-09-27T11:10:41;5.37;;;5.17;;
6207;SDS011;3137;51.550;7.060;2022-09-27T11:13:15;4.90;;;4.80;;
6207;SDS011;3137;51.550;7.060;2022-09-27T11:21:31;3.77;;;3.77;;
6207;SDS011;3137;51.550;7.060;2022-09-27T11:35:25;2.90;;;2.80;;
6207;SDS011;3137;51.550;7.060;2022-09-27T11:38:17;4.03;;;3.23;;
6207;SDS011;3137;51.550;7.060;2022-09-27T11:44:28;3.60;;;2.90;;
6207;SDS011;3137;51.550;7.060;2022-09-27T11:55:48;2.33;;;2.33;;
6207;SDS011;3137;51.550;7.060;2022-09-27T11:58:47;2.80;;;2.80;;
6207;SDS011;3137;51.550;7.060;2022-09-27T12:10:33;3.07;;;2.97;;
6207;SDS011;3137;51.550;7.060;2022-09-27T12:13:00;3.40;;;3.40;;
6207;SDS011;3137;51.550;7.060;2022-09-27T12:15:29;3.73;;;3.53;;
6207;SDS011;3137;51.550;7.060;2022-09-27T12:18:13;3.70;;;3.60;;
6207;SDS011;3137;51.550;7.060;2022-09-27T12:20:45;3.53;;;3.53;;
6207;SDS011;3137;51.550;7.060;2022-09-27T12:23:14;3.17;;;3.17;;
6207;SDS011;3137;51.550;7.060;2022-09-27T12:25:59;4.30;;;4.20;;
6207;SDS011;3137;51.550;7.060;2022-09-27T12:31:05;3.43;;;3.33;;
6207;SDS011;3137;51.550;7.060;2022-09-27T12:36:30;4.00;;;3.80;;
6207;SDS011;3137;51.550;7.060;2022-09-27T12:39:05;2.77;;;2.67;;
6207;SDS011;3137;51.550;7.060;2022-09-27T12:41:47;3.60;;;3.27;;
6207;SDS011;3137;51.550;7.060;2022-09-27T12:44:25;3.17;;;3.17;;
6207;SDS011;3137;51.550;7.060;2022-09-27T12:47:00;3.57;;;3.27;;
6207;SDS011;3137;51.550;7.060;2022-09-27T12:49:40;3.70;;;3.20;;
6207;SDS011;3137;51.550;7.060;2022-09-27T12:52:10;2.93;;;2.67;;
6207;SDS011;3137;51.550;7.060;2022-09-27T12:54:54;2.37;;;2.37;;
6207;SDS011;3137;51.550;7.060;2022-09-27T12:57:37;2.53;;;2.53;;
6207;SDS011;3137;51.550;7.060;2022-09-27T13:11:25;3.00;;;2.90;;
6207;SDS011;3137;51.550;7.060;2022-09-27T13:14:02;2.43;;;2.43;;
6207;SDS011;3137;51.550;7.060;2022-09-27T13:16:30;3.60;;;1.90;;
6207;SDS011;3137;51.550;7.060;2022-09-27T13:19:12;2.40;;;2.27;;
6207;SDS011;3137;51.550;7.060;2022-09-27T13:21:54;2.17;;;2.17;;
6207;SDS011;3137;51.550;7.060;2022-09-27T13:24:51;1.67;;;1.67;;
6207;SDS011;3137;51.550;7.060;2022-09-27T13:27:46;1.30;;;1.30;;
6207;SDS011;3137;51.550;7.060;2022-09-27T13:33:19;1.27;;;1.27;;
6207;SDS011;3137;51.550;7.060;2022-09-27T13:39:01;1.17;;;1.17;;
6207;SDS011;3137;51.550;7.060;2022-09-27T13:42:03;1.30;;;1.30;;
6207;SDS011;3137;51.550;7.060;2022-09-27T13:47:17;1.70;;;1.60;;
6207;SDS011;3137;51.550;7.060;2022-09-27T13:49:58;1.43;;;1.43;;
6207;SDS011;3137;51.550;7.060;2022-09-27T13:55:56;1.70;;;1.13;;
6207;SDS011;3137;51.550;7.060;2022-09-27T13:58:44;1.33;;;1.33;;
6207;SDS011;3137;51.550;7.060;2022-09-27T14:01:48;4.10;;;1.37;;
6207;SDS011;3137;51.550;7.060;2022-09-27T14:04:32;1.37;;;1.37;;
6207;SDS011;3137;51.550;7.060;2022-09-27T14:07:07;1.47;;;1.47;;
6207;SDS011;3137;51.550;7.060;2022-09-27T14:09:37;2.13;;;2.03;;
6207;SDS011;3137;51.550;7.060;2022-09-27T14:12:30;1.73;;;1.73;;
6207;SDS011;3137;51.550;7.060;2022-09-27T14:14:58;1.50;;;1.50;;
6207;SDS011;3137;51.550;7.060;2022-09-27T14:17:28;1.37;;;1.37;;
6207;SDS011;3137;51.550;7.060;2022-09-27T14:19:57;1.70;;;1.70;;
6207;SDS011;3137;51.550;7.060;2022-09-27T14:22:23;1.50;;;1.40;;
6207;SDS011;3137;51.550;7.060;2022-09-27T14:24:57;1.40;;;1.40;;
6207;SDS011;3137;51.550;7.060;2022-09-27T14:27:29;1.50;;;1.50;;
6207;SDS011;3137;51.550;7.060;2022-09-27T14:30:15;1.10;;;1.10;;
6207;SDS011;3137;51.550;7.060;2022-09-27T14:32:51;1.10;;;1.10;;
6207;SDS011;3137;51.550;7.060;2022-09-27T14:35:44;1.00;;;1.00;;
6207;SDS011;3137;51.550;7.060;2022-09-27T14:38:31;2.00;;;0.90;;
6207;SDS011;3137;51.550;7.060;2022-09-27T14:41:08;1.00;;;1.00;;
6207;SDS011;3137;51.550;7.060;2022-09-27T14:43:40;1.00;;;1.00;;
6207;SDS011;3137;51.550;7.060;2022-09-27T14:46:20;0.83;;;0.83;;
6207;SDS011;3137;51.550;7.060;2022-09-27T14:48:48;1.00;;;1.00;;
6207;SDS011;3137;51.550;7.060;2022-09-27T14:51:19;1.20;;;1.10;;
6207;SDS011;3137;51.550;7.060;2022-09-27T14:53:52;0.90;;;0.90;;
6207;SDS011;3137;51.550;7.060;2022-09-27T14:56:24;1.07;;;0.97;;
6207;SDS011;3137;51.550;7.060;2022-09-27T14:58:54;0.80;;;0.80;;
6207;SDS011;3137;51.550;7.060;2022-09-27T15:01:28;1.70;;;0.90;;
6207;SDS011;3137;51.550;7.060;2022-09-27T15:03:56;1.23;;;1.23;;
6207;SDS011;3137;51.550;7.060;2022-09-27T15:06:29;4.23;;;1.20;;
6207;SDS011;3137;51.550;7.060;2022-09-27T15:08:56;0.90;;;0.90;;
6207;SDS011;3137;51.550;7.060;2022-09-27T15:11:23;1.07;;;1.07;;
6207;SDS011;3137;51.550;7.060;2022-09-27T15:13:50;1.27;;;1.07;;
6207;SDS011;3137;51.550;7.060;2022-09-27T15:16:19;1.40;;;1.40;;
6207;SDS011;3137;51.550;7.060;2022-09-27T15:18:48;1.30;;;1.20;;
6207;SDS011;3137;51.550;7.060;2022-09-27T15:21:28;1.50;;;1.40;;
6207;SDS011;3137;51.550;7.060;2022-09-27T15:23:59;1.33;;;1.33;;
6207;SDS011;3137;51.550;7.060;2022-09-27T15:26:36;1.40;;;1.40;;
6207;SDS011;3137;51.550;7.060;2022-09-27T15:29:17;1.37;;;1.10;;
6207;SDS011;3137;51.550;7.060;2022-09-27T15:31:44;1.10;;;1.10;;
6207;SDS011;3137;51.550;7.060;2022-09-27T15:34:16;1.10;;;1.10;;
6207;SDS011;3137;51.550;7.060;2022-09-27T15:39:15;1.43;;;1.43;;
6207;SDS011;3137;51.550;7.060;2022-09-27T15:42:03;1.40;;;1.30;;
6207;SDS011;3137;51.550;7.060;2022-09-27T15:52:42;3.93;;;1.57;;
6207;SDS011;3137;51.550;7.060;2022-09-27T15:55:12;1.90;;;1.50;;
6207;SDS011;3137;51.550;7.060;2022-09-27T15:57:40;1.70;;;1.70;;
6207;SDS011;3137;51.550;7.060;2022-09-27T16:00:10;5.80;;;1.40;;
6207;SDS011;3137;51.550;7.060;2022-09-27T16:02:38;1.63;;;1.63;;
6207;SDS011;3137;51.550;7.060;2022-09-27T16:05:04;3.23;;;1.63;;
6207;SDS011;3137;51.550;7.060;2022-09-27T16:07:31;1.37;;;1.37;;
6207;SDS011;3137;51.550;7.060;2022-09-27T16:09:58;1.80;;;1.80;;
6207;SDS011;3137;51.550;7.060;2022-09-27T16:12:24;2.93;;;2.10;;
6207;SDS011;3137;51.550;7.060;2022-09-27T16:14:52;2.37;;;2.20;;
6207;SDS011;3137;51.550;7.060;2022-09-27T16:17:19;2.37;;;2.37;;
6207;SDS011;3137;51.550;7.060;2022-09-27T16:19:45;3.50;;;2.70;;
6207;SDS011;3137;51.550;7.060;2022-09-27T16:22:11;2.03;;;2.03;;
6207;SDS011;3137;51.550;7.060;2022-09-27T16:24:38;2.33;;;2.13;;
6207;SDS011;3137;51.550;7.060;2022-09-27T16:27:05;5.60;;;2.60;;
6207;SDS011;3137;51.550;7.060;2022-09-27T16:29:31;3.67;;;2.50;;
6207;SDS011;3137;51.550;7.060;2022-09-27T16:31:57;4.30;;;2.67;;
6207;SDS011;3137;51.550;7.060;2022-09-27T16:34:24;1.87;;;1.87;;
6207;SDS011;3137;51.550;7.060;2022-09-27T16:36:50;2.40;;;2.30;;
6207;SDS011;3137;51.550;7.060;2022-09-27T16:39:17;4.43;;;2.10;;
6207;SDS011;3137;51.550;7.060;2022-09-27T16:41:43;2.80;;;1.80;;
6207;SDS011;3137;51.550;7.060;2022-09-27T16:44:11;3.17;;;2.50;;
6207;SDS011;3137;51.550;7.060;2022-09-27T16:46:39;3.07;;;2.37;;
6207;SDS011;3137;51.550;7.060;2022-09-27T16:49:06;1.70;;;1.67;;
6207;SDS011;3137;51.550;7.060;2022-09-27T16:51:56;2.50;;;2.37;;
6207;SDS011;3137;51.550;7.060;2022-09-27T16:54:29;1.67;;;1.57;;
6207;SDS011;3137;51.550;7.060;2022-09-27T16:56:57;2.00;;;1.90;;
6207;SDS011;3137;51.550;7.060;2022-09-27T16:59:24;2.20;;;1.70;;
6207;SDS011;3137;51.550;7.060;2022-09-27T17:01:51;1.90;;;1.80;;
6207;SDS011;3137;51.550;7.060;2022-09-27T17:04:26;1.73;;;1.73;;
6207;SDS011;3137;51.550;7.060;2022-09-27T17:06:53;2.10;;;1.50;;
6207;SDS011;3137;51.550;7.060;2022-09-27T17:09:20;1.83;;;1.83;;
6207;SDS011;3137;51.550;7.060;2022-09-27T17:11:47;1.97;;;1.93;;
6207;SDS011;3137;51.550;7.060;2022-09-27T17:14:13;3.80;;;1.63;;
6207;SDS011;3137;51.550;7.060;2022-09-27T17:16:42;4.63;;;2.03;;
6207;SDS011;3137;51.550;7.060;2022-09-27T17:19:10;2.97;;;2.23;;
6207;SDS011;3137;51.550;7.060;2022-09-27T17:21:37;3.07;;;2.70;;
6207;SDS011;3137;51.550;7.060;2022-09-27T17:24:04;3.87;;;2.60;;
6207;SDS011;3137;51.550;7.060;2022-09-27T17:26:31;2.00;;;2.00;;
6207;SDS011;3137;51.550;7.060;2022-09-27T17:28:58;3.00;;;2.30;;
6207;SDS011;3137;51.550;7.060;2022-09-27T17:31:29;2.30;;;2.20;;
6207;SDS011;3137;51.550;7.060;2022-09-27T17:33:58;3.13;;;2.73;;
6207;SDS011;3137;51.550;7.060;2022-09-27T17:36:26;3.60;;;2.23;;
6207;SDS011;3137;51.550;7.060;2022-09-27T17:38:54;2.33;;;2.23;;
6207;SDS011;3137;51.550;7.060;2022-09-27T17:41:24;2.10;;;2.10;;
6207;SDS011;3137;51.550;7.060;2022-09-27T17:43:52;2.70;;;2.70;;
6207;SDS011;3137;51.550;7.060;2022-09-27T17:46:21;2.17;;;2.17;;
6207;SDS011;3137;51.550;7.060;2022-09-27T17:48:58;2.30;;;2.20;;
6207;SDS011;3137;51.550;7.060;2022-09-27T17:51:48;2.30;;;2.30;;
6207;SDS011;3137;51.550;7.060;2022-09-27T17:54:15;2.13;;;2.13;;
6207;SDS011;3137;51.550;7.060;2022-09-27T17:56:44;2.30;;;2.30;;
6207;SDS011;3137;51.550;7.060;2022-09-27T17:59:11;2.77;;;2.40;;
6207;SDS011;3137;51.550;7.060;2022-09-27T18:01:41;3.13;;;2.80;;
6207;SDS011;3137;51.550;7.060;2022-09-27T18:04:10;2.97;;;2.87;;
6207;SDS011;3137;51.550;7.060;2022-09-27T18:06:40;7.80;;;2.70;;
6207;SDS011;3137;51.550;7.060;2022-09-27T18:09:08;5.03;;;3.40;;
6207;SDS011;3137;51.550;7.060;2022-09-27T18:11:36;3.03;;;2.93;;
6207;SDS011;3137;51.550;7.060;2022-09-27T18:14:04;3.00;;;2.70;;
6207;SDS011;3137;51.550;7.060;2022-09-27T18:16:33;3.63;;;3.53;;
6207;SDS011;3137;51.550;7.060;2022-09-27T18:19:04;2.87;;;2.67;;